Flight Track Log - Related Links

Times and Time Zones

All times are in EDT time to prevent confusion due to time zone crossing. See the CTL13 flight status page for this flight to view local times or setup timezone preferences in your user account.

Time Position Orientation Groundspeed Altitude Reporting Facility
EDT Latitude Longitude Course Direction KTS MPH feet Rate Location/Type
Fri 11:35:31 PM 41.8000 -87.7500 90° East 136 157 1,300  Level Chicago TRACON
Fri 11:36:19 PM 41.8000 -87.7000 90° East 161 185 2,000 895 Climbing Chicago TRACON
Fri 11:37:25 PM 41.8000 -87.6333 90° East 171 197 3,000 800 Climbing Chicago TRACON
Fri 11:38:04 PM 41.8025 -87.5931 85° East 166 191 3,400 660 Climbing Chicago Center
Fri 11:39:05 PM 41.8042 -87.5297 88° East 168 193 4,100 689 Climbing Chicago Center
Fri 11:40:06 PM 41.8031 -87.4644 91° East 172 198 4,800 393 Climbing Chicago Center
Fri 11:41:07 PM 41.7983 -87.3975 95° East 176 203 4,900 49 Climbing Chicago Center
Fri 11:42:08 PM 41.7950 -87.3242 93° East 191 220 4,900  Level Chicago Center
Fri 11:43:09 PM 41.7925 -87.2531 93° East 191 220 4,900  Level Chicago Center
Fri 11:44:10 PM 41.7908 -87.1831 92° East 190 219 4,900 -49 Level Chicago Center
Fri 11:45:11 PM 41.7900 -87.1164 91° East 183 211 4,800  Descending Chicago Center
Fri 11:46:12 PM 41.7853 -87.0489 95° East 182 209 4,900 98 Climbing Chicago Center
Fri 11:47:13 PM 41.8081 -86.9828 65° Northeast 169 194 5,000  Climbing Chicago Center
Fri 11:48:14 PM 41.8414 -86.9397 44° Northeast 167 192 4,900 -49 Descending Chicago Center
Fri 11:49:15 PM 41.8725 -86.8981 45° Northeast 162 186 4,900 49 Level Chicago Center
Fri 11:50:16 PM 41.9053 -86.8542 45° Northeast 166 191 5,000  Climbing Chicago Center
Fri 11:51:17 PM 41.9389 -86.8103 44° Northeast 168 193 4,900  Descending Chicago Center
Fri 11:52:19 PM 41.9711 -86.7658 46° Northeast 168 193 5,000  Climbing Chicago Center
Fri 11:53:19 PM 42.0036 -86.7211 46° Northeast 168 193 4,900  Descending Chicago Center
Fri 11:54:20 PM 42.0367 -86.6714 48° Northeast 167 192 5,000  Climbing Chicago Center
Fri 11:55:21 PM 42.0692 -86.6258 46° Northeast 169 194 4,900 -49 Descending Chicago Center
Fri 11:56:22 PM 42.1022 -86.5817 45° Northeast 168 193 4,900  Level Chicago Center
Fri 11:57:23 PM 42.1353 -86.5364 45° Northeast 168 193 4,900 49 Level Chicago Center
Fri 11:58:24 PM 42.1692 -86.4931 43° Northeast 168 193 5,000 49 Climbing Chicago Center
Fri 11:59:25 PM 42.2025 -86.4497 44° Northeast 168 193 5,000 -49 Level Chicago Center
Sat 12:00:26 AM 42.2364 -86.4061 44° Northeast 168 193 4,900  Descending Chicago Center
Sat 12:01:27 AM 42.2697 -86.3600 46° Northeast 171 197 5,000 50 Climbing Chicago Center
Sat 12:02:27 AM 42.3086 -86.3069 45° Northeast 173 199 5,000 50 Level Chicago Center
Sat 12:03:28 AM 42.3447 -86.2644 41° Northeast 173 199 5,100 49 Climbing Chicago Center
Sat 12:04:29 AM 42.3767 -86.2200 46° Northeast 168 193 5,100  Level Chicago Center
Sat 12:05:30 AM 42.4097 -86.1747 45° Northeast 169 194 5,100 -49 Level Chicago Center
Sat 12:06:31 AM 42.4433 -86.1294 45° Northeast 170 196 5,000  Descending Chicago Center
Sat 12:07:32 AM 42.4769 -86.0847 44° Northeast 171 197 5,100  Climbing Chicago Center
Sat 12:08:33 AM 42.5097 -86.0392 46° Northeast 170 196 5,000  Descending Chicago Center
Sat 12:09:33 AM 42.5419 -85.9931 47° Northeast 170 196 5,100  Climbing Chicago Center
Sat 12:10:34 AM 42.5744 -85.9472 46° Northeast 170 196 5,000  Descending Chicago Center
Sat 12:11:35 AM 42.6075 -85.8997 47° Northeast 172 198 5,100 -246 Climbing Chicago Center
Sat 12:12:36 AM 42.6417 -85.8517 46° Northeast 176 203 4,500 -541 Descending Chicago Center
Sat 12:13:37 AM 42.6864 -85.7944 43° Northeast 184 212 4,000 -541 Descending Chicago Center
Sat 12:14:38 AM 42.7222 -85.7464 45° Northeast 182 209 3,400 -590 Descending Chicago Center

Login

Don't have an account? Register now (free) for customized features, flight alerts, and more!